sensor_id;sensor_type;location;lat;lon;timestamp;P1;durP1;ratioP1;P2;durP2;ratioP2
22660;SDS011;11497;52.222;21.246;2023-07-13T00:01:56;37.08;;;26.33;;
22660;SDS011;11497;52.222;21.246;2023-07-13T00:04:24;38.03;;;27.67;;
22660;SDS011;11497;52.222;21.246;2023-07-13T00:06:52;37.85;;;28.80;;
22660;SDS011;11497;52.222;21.246;2023-07-13T00:09:21;31.55;;;25.67;;
22660;SDS011;11497;52.222;21.246;2023-07-13T00:11:53;34.25;;;25.20;;
22660;SDS011;11497;52.222;21.246;2023-07-13T00:14:21;34.47;;;26.67;;
22660;SDS011;11497;52.222;21.246;2023-07-13T00:16:48;32.78;;;26.05;;
22660;SDS011;11497;52.222;21.246;2023-07-13T00:19:16;35.05;;;27.15;;
22660;SDS011;11497;52.222;21.246;2023-07-13T00:21:44;37.58;;;25.75;;
22660;SDS011;11497;52.222;21.246;2023-07-13T00:24:13;34.55;;;26.73;;
22660;SDS011;11497;52.222;21.246;2023-07-13T00:26:42;35.70;;;27.00;;
22660;SDS011;11497;52.222;21.246;2023-07-13T00:29:12;39.80;;;26.75;;
22660;SDS011;11497;52.222;21.246;2023-07-13T00:31:40;35.45;;;27.27;;
22660;SDS011;11497;52.222;21.246;2023-07-13T00:34:08;37.45;;;27.40;;
22660;SDS011;11497;52.222;21.246;2023-07-13T00:36:36;34.15;;;26.15;;
22660;SDS011;11497;52.222;21.246;2023-07-13T00:39:04;38.35;;;27.80;;
22660;SDS011;11497;52.222;21.246;2023-07-13T00:41:31;37.63;;;26.45;;
22660;SDS011;11497;52.222;21.246;2023-07-13T00:43:59;33.65;;;25.60;;
22660;SDS011;11497;52.222;21.246;2023-07-13T00:46:31;34.50;;;26.70;;
22660;SDS011;11497;52.222;21.246;2023-07-13T00:49:01;33.85;;;25.60;;
22660;SDS011;11497;52.222;21.246;2023-07-13T00:51:39;33.33;;;26.67;;
22660;SDS011;11497;52.222;21.246;2023-07-13T00:54:09;33.72;;;26.27;;
22660;SDS011;11497;52.222;21.246;2023-07-13T00:56:38;34.55;;;26.95;;
22660;SDS011;11497;52.222;21.246;2023-07-13T00:59:07;37.55;;;28.02;;
22660;SDS011;11497;52.222;21.246;2023-07-13T01:01:35;38.17;;;27.00;;
22660;SDS011;11497;52.222;21.246;2023-07-13T01:04:04;34.00;;;27.45;;
22660;SDS011;11497;52.222;21.246;2023-07-13T01:06:37;33.88;;;26.13;;
22660;SDS011;11497;52.222;21.246;2023-07-13T01:09:06;33.08;;;27.10;;
22660;SDS011;11497;52.222;21.246;2023-07-13T01:11:34;37.35;;;27.13;;
22660;SDS011;11497;52.222;21.246;2023-07-13T01:14:03;36.72;;;27.15;;
22660;SDS011;11497;52.222;21.246;2023-07-13T01:16:31;34.80;;;27.52;;
22660;SDS011;11497;52.222;21.246;2023-07-13T01:19:00;31.52;;;26.08;;
22660;SDS011;11497;52.222;21.246;2023-07-13T01:21:28;36.45;;;26.98;;
22660;SDS011;11497;52.222;21.246;2023-07-13T01:23:58;37.08;;;27.27;;
22660;SDS011;11497;52.222;21.246;2023-07-13T01:26:26;36.00;;;27.58;;
22660;SDS011;11497;52.222;21.246;2023-07-13T01:28:54;37.78;;;26.73;;
22660;SDS011;11497;52.222;21.246;2023-07-13T01:31:23;35.08;;;26.23;;
22660;SDS011;11497;52.222;21.246;2023-07-13T01:33:51;30.70;;;26.00;;
22660;SDS011;11497;52.222;21.246;2023-07-13T01:36:20;35.75;;;26.50;;
22660;SDS011;11497;52.222;21.246;2023-07-13T01:38:48;34.80;;;26.10;;
22660;SDS011;11497;52.222;21.246;2023-07-13T01:41:16;31.67;;;25.33;;
22660;SDS011;11497;52.222;21.246;2023-07-13T01:43:45;37.15;;;25.23;;
22660;SDS011;11497;52.222;21.246;2023-07-13T01:46:13;31.65;;;25.35;;
22660;SDS011;11497;52.222;21.246;2023-07-13T01:48:43;30.42;;;24.73;;
22660;SDS011;11497;52.222;21.246;2023-07-13T01:51:11;32.92;;;24.60;;
22660;SDS011;11497;52.222;21.246;2023-07-13T01:53:40;31.38;;;24.13;;
22660;SDS011;11497;52.222;21.246;2023-07-13T01:56:07;28.45;;;23.58;;
22660;SDS011;11497;52.222;21.246;2023-07-13T01:58:35;31.58;;;24.30;;
22660;SDS011;11497;52.222;21.246;2023-07-13T02:01:03;30.48;;;23.10;;
22660;SDS011;11497;52.222;21.246;2023-07-13T02:03:31;31.55;;;23.80;;
22660;SDS011;11497;52.222;21.246;2023-07-13T02:05:59;30.77;;;23.60;;
22660;SDS011;11497;52.222;21.246;2023-07-13T02:08:26;29.65;;;23.58;;
22660;SDS011;11497;52.222;21.246;2023-07-13T02:10:54;32.42;;;23.20;;
22660;SDS011;11497;52.222;21.246;2023-07-13T02:13:22;32.90;;;24.25;;
22660;SDS011;11497;52.222;21.246;2023-07-13T02:15:50;36.50;;;24.60;;
22660;SDS011;11497;52.222;21.246;2023-07-13T02:18:18;29.13;;;23.25;;
22660;SDS011;11497;52.222;21.246;2023-07-13T02:20:45;31.88;;;23.80;;
22660;SDS011;11497;52.222;21.246;2023-07-13T02:23:13;31.58;;;23.27;;
22660;SDS011;11497;52.222;21.246;2023-07-13T02:25:41;30.23;;;23.33;;
22660;SDS011;11497;52.222;21.246;2023-07-13T02:28:08;36.00;;;23.33;;
22660;SDS011;11497;52.222;21.246;2023-07-13T02:30:36;34.70;;;24.10;;
22660;SDS011;11497;52.222;21.246;2023-07-13T02:33:05;33.40;;;24.77;;
22660;SDS011;11497;52.222;21.246;2023-07-13T02:35:32;30.75;;;23.20;;
22660;SDS011;11497;52.222;21.246;2023-07-13T02:38:00;32.63;;;24.05;;
22660;SDS011;11497;52.222;21.246;2023-07-13T02:40:30;31.60;;;24.02;;
22660;SDS011;11497;52.222;21.246;2023-07-13T02:43:00;35.05;;;24.15;;
22660;SDS011;11497;52.222;21.246;2023-07-13T02:45:30;30.00;;;22.75;;
22660;SDS011;11497;52.222;21.246;2023-07-13T02:47:58;29.67;;;23.13;;
22660;SDS011;11497;52.222;21.246;2023-07-13T02:50:26;32.03;;;23.65;;
22660;SDS011;11497;52.222;21.246;2023-07-13T02:52:53;33.40;;;22.42;;
22660;SDS011;11497;52.222;21.246;2023-07-13T02:55:21;28.60;;;22.60;;
22660;SDS011;11497;52.222;21.246;2023-07-13T02:57:49;29.77;;;22.52;;
22660;SDS011;11497;52.222;21.246;2023-07-13T03:00:17;32.08;;;22.65;;
22660;SDS011;11497;52.222;21.246;2023-07-13T03:02:45;30.65;;;21.58;;
22660;SDS011;11497;52.222;21.246;2023-07-13T03:05:14;30.27;;;23.20;;
22660;SDS011;11497;52.222;21.246;2023-07-13T03:07:43;29.75;;;23.70;;
22660;SDS011;11497;52.222;21.246;2023-07-13T03:10:11;31.02;;;23.77;;
22660;SDS011;11497;52.222;21.246;2023-07-13T03:12:47;33.63;;;25.45;;
22660;SDS011;11497;52.222;21.246;2023-07-13T03:17:50;31.13;;;24.48;;
22660;SDS011;11497;52.222;21.246;2023-07-13T03:20:18;34.13;;;25.08;;
22660;SDS011;11497;52.222;21.246;2023-07-13T03:22:46;33.90;;;25.98;;
22660;SDS011;11497;52.222;21.246;2023-07-13T03:25:15;30.23;;;24.90;;
22660;SDS011;11497;52.222;21.246;2023-07-13T03:27:43;31.90;;;25.23;;
22660;SDS011;11497;52.222;21.246;2023-07-13T03:30:11;33.05;;;25.00;;
22660;SDS011;11497;52.222;21.246;2023-07-13T03:32:39;34.47;;;27.02;;
22660;SDS011;11497;52.222;21.246;2023-07-13T03:35:07;33.95;;;26.77;;
22660;SDS011;11497;52.222;21.246;2023-07-13T03:37:36;36.58;;;26.67;;
22660;SDS011;11497;52.222;21.246;2023-07-13T03:40:12;32.05;;;25.60;;
22660;SDS011;11497;52.222;21.246;2023-07-13T03:42:42;33.83;;;27.02;;
22660;SDS011;11497;52.222;21.246;2023-07-13T03:45:13;41.00;;;26.77;;
22660;SDS011;11497;52.222;21.246;2023-07-13T03:47:41;36.05;;;27.02;;
22660;SDS011;11497;52.222;21.246;2023-07-13T03:50:08;32.30;;;26.20;;
22660;SDS011;11497;52.222;21.246;2023-07-13T03:52:36;32.33;;;25.08;;
22660;SDS011;11497;52.222;21.246;2023-07-13T03:55:04;35.22;;;25.02;;
22660;SDS011;11497;52.222;21.246;2023-07-13T03:57:34;32.47;;;25.05;;
22660;SDS011;11497;52.222;21.246;2023-07-13T04:00:07;29.98;;;23.40;;
22660;SDS011;11497;52.222;21.246;2023-07-13T04:02:41;33.28;;;24.23;;
22660;SDS011;11497;52.222;21.246;2023-07-13T04:05:09;31.27;;;24.67;;
22660;SDS011;11497;52.222;21.246;2023-07-13T04:07:37;31.30;;;23.52;;
22660;SDS011;11497;52.222;21.246;2023-07-13T04:10:06;34.47;;;25.08;;
22660;SDS011;11497;52.222;21.246;2023-07-13T04:12:34;33.97;;;23.90;;
22660;SDS011;11497;52.222;21.246;2023-07-13T04:15:03;34.00;;;24.83;;
22660;SDS011;11497;52.222;21.246;2023-07-13T04:17:30;30.98;;;25.27;;
22660;SDS011;11497;52.222;21.246;2023-07-13T04:19:58;33.47;;;25.08;;
22660;SDS011;11497;52.222;21.246;2023-07-13T04:22:26;34.08;;;25.30;;
22660;SDS011;11497;52.222;21.246;2023-07-13T04:24:54;35.83;;;26.27;;
22660;SDS011;11497;52.222;21.246;2023-07-13T04:27:22;31.25;;;23.80;;
22660;SDS011;11497;52.222;21.246;2023-07-13T04:29:51;36.80;;;24.55;;
22660;SDS011;11497;52.222;21.246;2023-07-13T04:32:19;32.50;;;24.63;;
22660;SDS011;11497;52.222;21.246;2023-07-13T04:34:46;30.00;;;23.52;;
22660;SDS011;11497;52.222;21.246;2023-07-13T04:37:20;28.80;;;22.67;;
22660;SDS011;11497;52.222;21.246;2023-07-13T04:39:47;33.55;;;22.40;;
22660;SDS011;11497;52.222;21.246;2023-07-13T04:42:15;26.05;;;21.27;;
22660;SDS011;11497;52.222;21.246;2023-07-13T04:44:47;25.70;;;21.38;;
22660;SDS011;11497;52.222;21.246;2023-07-13T04:47:15;30.40;;;20.58;;
22660;SDS011;11497;52.222;21.246;2023-07-13T04:49:43;25.33;;;20.27;;
22660;SDS011;11497;52.222;21.246;2023-07-13T04:52:11;24.77;;;18.95;;
22660;SDS011;11497;52.222;21.246;2023-07-13T04:54:39;26.35;;;19.27;;
22660;SDS011;11497;52.222;21.246;2023-07-13T04:57:07;22.20;;;19.00;;
22660;SDS011;11497;52.222;21.246;2023-07-13T04:59:35;24.83;;;18.45;;
22660;SDS011;11497;52.222;21.246;2023-07-13T05:02:03;24.48;;;17.83;;
22660;SDS011;11497;52.222;21.246;2023-07-13T05:04:31;26.27;;;18.65;;
22660;SDS011;11497;52.222;21.246;2023-07-13T05:06:59;25.08;;;19.00;;
22660;SDS011;11497;52.222;21.246;2023-07-13T05:09:26;24.58;;;18.75;;
22660;SDS011;11497;52.222;21.246;2023-07-13T05:11:54;26.25;;;17.77;;
22660;SDS011;11497;52.222;21.246;2023-07-13T05:14:22;28.15;;;19.60;;
22660;SDS011;11497;52.222;21.246;2023-07-13T05:16:49;24.95;;;18.45;;
22660;SDS011;11497;52.222;21.246;2023-07-13T05:19:17;20.90;;;18.27;;
22660;SDS011;11497;52.222;21.246;2023-07-13T05:21:45;24.33;;;18.30;;
22660;SDS011;11497;52.222;21.246;2023-07-13T05:24:12;25.30;;;18.52;;
22660;SDS011;11497;52.222;21.246;2023-07-13T05:26:50;28.25;;;19.25;;
22660;SDS011;11497;52.222;21.246;2023-07-13T05:29:18;24.98;;;18.13;;
22660;SDS011;11497;52.222;21.246;2023-07-13T05:31:46;25.02;;;18.35;;
22660;SDS011;11497;52.222;21.246;2023-07-13T05:34:14;24.85;;;17.83;;
22660;SDS011;11497;52.222;21.246;2023-07-13T05:36:42;27.45;;;19.70;;
22660;SDS011;11497;52.222;21.246;2023-07-13T05:39:09;27.02;;;20.08;;
22660;SDS011;11497;52.222;21.246;2023-07-13T05:41:38;26.77;;;20.25;;
22660;SDS011;11497;52.222;21.246;2023-07-13T05:44:06;22.45;;;19.25;;
22660;SDS011;11497;52.222;21.246;2023-07-13T05:46:34;25.88;;;19.58;;
22660;SDS011;11497;52.222;21.246;2023-07-13T05:49:01;23.35;;;19.30;;
22660;SDS011;11497;52.222;21.246;2023-07-13T05:51:29;24.75;;;18.95;;
22660;SDS011;11497;52.222;21.246;2023-07-13T05:53:57;33.38;;;20.55;;
22660;SDS011;11497;52.222;21.246;2023-07-13T05:56:25;28.52;;;19.85;;
22660;SDS011;11497;52.222;21.246;2023-07-13T05:58:53;25.38;;;17.77;;
22660;SDS011;11497;52.222;21.246;2023-07-13T06:01:20;22.23;;;17.70;;
22660;SDS011;11497;52.222;21.246;2023-07-13T06:03:50;21.38;;;17.33;;
22660;SDS011;11497;52.222;21.246;2023-07-13T06:06:18;26.40;;;18.20;;
22660;SDS011;11497;52.222;21.246;2023-07-13T06:08:45;23.02;;;17.35;;
22660;SDS011;11497;52.222;21.246;2023-07-13T06:11:14;21.52;;;17.15;;
22660;SDS011;11497;52.222;21.246;2023-07-13T06:13:43;20.63;;;16.30;;
22660;SDS011;11497;52.222;21.246;2023-07-13T06:16:11;20.17;;;15.43;;
22660;SDS011;11497;52.222;21.246;2023-07-13T06:18:39;20.52;;;14.82;;
22660;SDS011;11497;52.222;21.246;2023-07-13T06:21:10;18.75;;;14.57;;
22660;SDS011;11497;52.222;21.246;2023-07-13T06:23:39;17.33;;;12.90;;
22660;SDS011;11497;52.222;21.246;2023-07-13T06:26:07;19.02;;;14.13;;
22660;SDS011;11497;52.222;21.246;2023-07-13T06:28:35;18.17;;;14.32;;
22660;SDS011;11497;52.222;21.246;2023-07-13T06:31:07;20.67;;;15.90;;
22660;SDS011;11497;52.222;21.246;2023-07-13T06:33:36;15.35;;;13.20;;
22660;SDS011;11497;52.222;21.246;2023-07-13T06:36:04;16.75;;;13.43;;
22660;SDS011;11497;52.222;21.246;2023-07-13T06:38:32;15.52;;;11.18;;
22660;SDS011;11497;52.222;21.246;2023-07-13T06:41:00;13.40;;;10.90;;
22660;SDS011;11497;52.222;21.246;2023-07-13T06:43:28;14.95;;;11.05;;
22660;SDS011;11497;52.222;21.246;2023-07-13T06:45:58;10.70;;;8.45;;
22660;SDS011;11497;52.222;21.246;2023-07-13T06:48:26;13.10;;;8.85;;
22660;SDS011;11497;52.222;21.246;2023-07-13T06:50:55;11.00;;;7.88;;
22660;SDS011;11497;52.222;21.246;2023-07-13T06:53:23;11.60;;;8.23;;
22660;SDS011;11497;52.222;21.246;2023-07-13T06:55:51;10.55;;;9.10;;
22660;SDS011;11497;52.222;21.246;2023-07-13T06:58:20;14.00;;;9.15;;
22660;SDS011;11497;52.222;21.246;2023-07-13T07:00:50;12.23;;;9.13;;
22660;SDS011;11497;52.222;21.246;2023-07-13T07:03:17;12.50;;;8.95;;
22660;SDS011;11497;52.222;21.246;2023-07-13T07:05:46;8.68;;;7.78;;
22660;SDS011;11497;52.222;21.246;2023-07-13T07:08:13;8.80;;;7.63;;
22660;SDS011;11497;52.222;21.246;2023-07-13T07:10:41;12.20;;;7.30;;
22660;SDS011;11497;52.222;21.246;2023-07-13T07:13:09;11.20;;;8.10;;
22660;SDS011;11497;52.222;21.246;2023-07-13T07:15:37;11.73;;;9.52;;
22660;SDS011;11497;52.222;21.246;2023-07-13T07:18:04;9.48;;;6.30;;
22660;SDS011;11497;52.222;21.246;2023-07-13T07:20:32;10.70;;;6.70;;
22660;SDS011;11497;52.222;21.246;2023-07-13T07:23:00;10.07;;;5.93;;
22660;SDS011;11497;52.222;21.246;2023-07-13T07:25:27;6.65;;;5.82;;
22660;SDS011;11497;52.222;21.246;2023-07-13T07:27:58;9.85;;;6.68;;
22660;SDS011;11497;52.222;21.246;2023-07-13T07:30:29;6.25;;;5.07;;
22660;SDS011;11497;52.222;21.246;2023-07-13T07:32:59;5.43;;;4.80;;
22660;SDS011;11497;52.222;21.246;2023-07-13T07:35:31;6.05;;;5.45;;
22660;SDS011;11497;52.222;21.246;2023-07-13T07:38:04;7.65;;;5.30;;
22660;SDS011;11497;52.222;21.246;2023-07-13T07:40:32;5.85;;;5.32;;
22660;SDS011;11497;52.222;21.246;2023-07-13T07:43:07;7.78;;;5.80;;
22660;SDS011;11497;52.222;21.246;2023-07-13T07:45:35;8.30;;;6.18;;
22660;SDS011;11497;52.222;21.246;2023-07-13T07:48:04;9.65;;;6.30;;
22660;SDS011;11497;52.222;21.246;2023-07-13T07:50:35;7.90;;;5.63;;
22660;SDS011;11497;52.222;21.246;2023-07-13T07:53:05;6.60;;;5.30;;
22660;SDS011;11497;52.222;21.246;2023-07-13T07:55:34;8.35;;;6.18;;
22660;SDS011;11497;52.222;21.246;2023-07-13T07:58:05;8.43;;;5.78;;
22660;SDS011;11497;52.222;21.246;2023-07-13T08:00:53;8.75;;;5.80;;
22660;SDS011;11497;52.222;21.246;2023-07-13T08:03:23;8.40;;;5.47;;
22660;SDS011;11497;52.222;21.246;2023-07-13T08:05:54;7.47;;;5.95;;
22660;SDS011;11497;52.222;21.246;2023-07-13T08:08:25;8.70;;;6.05;;
22660;SDS011;11497;52.222;21.246;2023-07-13T08:10:53;7.95;;;6.50;;
22660;SDS011;11497;52.222;21.246;2023-07-13T08:13:25;7.63;;;6.82;;
22660;SDS011;11497;52.222;21.246;2023-07-13T08:15:53;7.38;;;6.68;;
22660;SDS011;11497;52.222;21.246;2023-07-13T08:18:21;7.45;;;6.70;;
22660;SDS011;11497;52.222;21.246;2023-07-13T08:20:48;9.15;;;6.70;;
22660;SDS011;11497;52.222;21.246;2023-07-13T08:23:17;10.90;;;7.38;;
22660;SDS011;11497;52.222;21.246;2023-07-13T08:25:50;9.40;;;6.70;;
22660;SDS011;11497;52.222;21.246;2023-07-13T08:28:18;7.32;;;5.93;;
22660;SDS011;11497;52.222;21.246;2023-07-13T08:30:46;9.18;;;5.85;;
22660;SDS011;11497;52.222;21.246;2023-07-13T08:33:18;6.40;;;5.70;;
22660;SDS011;11497;52.222;21.246;2023-07-13T08:35:46;8.75;;;6.00;;
22660;SDS011;11497;52.222;21.246;2023-07-13T08:38:14;7.68;;;5.80;;
22660;SDS011;11497;52.222;21.246;2023-07-13T08:40:42;7.53;;;6.03;;
22660;SDS011;11497;52.222;21.246;2023-07-13T08:43:13;9.85;;;5.90;;
22660;SDS011;11497;52.222;21.246;2023-07-13T08:45:44;6.78;;;5.72;;
22660;SDS011;11497;52.222;21.246;2023-07-13T08:48:14;5.65;;;5.05;;
22660;SDS011;11497;52.222;21.246;2023-07-13T08:51:33;6.80;;;5.40;;
22660;SDS011;11497;52.222;21.246;2023-07-13T08:53:44;7.97;;;5.07;;
22660;SDS011;11497;52.222;21.246;2023-07-13T08:56:21;5.95;;;5.40;;
22660;SDS011;11497;52.222;21.246;2023-07-13T08:58:53;6.30;;;5.25;;
22660;SDS011;11497;52.222;21.246;2023-07-13T09:01:25;6.20;;;5.60;;
22660;SDS011;11497;52.222;21.246;2023-07-13T09:03:58;6.78;;;5.43;;
22660;SDS011;11497;52.222;21.246;2023-07-13T09:06:31;7.10;;;5.22;;
22660;SDS011;11497;52.222;21.246;2023-07-13T09:09:02;7.88;;;5.85;;
22660;SDS011;11497;52.222;21.246;2023-07-13T09:11:42;9.43;;;5.90;;
22660;SDS011;11497;52.222;21.246;2023-07-13T09:16:43;10.50;;;5.80;;
22660;SDS011;11497;52.222;21.246;2023-07-13T09:19:18;7.82;;;5.80;;
22660;SDS011;11497;52.222;21.246;2023-07-13T09:21:49;8.18;;;5.80;;
22660;SDS011;11497;52.222;21.246;2023-07-13T09:26:55;7.25;;;6.53;;
22660;SDS011;11497;52.222;21.246;2023-07-13T09:29:28;8.32;;;6.40;;
22660;SDS011;11497;52.222;21.246;2023-07-13T09:31:57;7.25;;;6.55;;
22660;SDS011;11497;52.222;21.246;2023-07-13T09:34:27;9.93;;;6.43;;
22660;SDS011;11497;52.222;21.246;2023-07-13T09:36:57;7.97;;;6.70;;
22660;SDS011;11497;52.222;21.246;2023-07-13T09:39:26;7.00;;;6.40;;
22660;SDS011;11497;52.222;21.246;2023-07-13T09:44:29;8.52;;;6.07;;
22660;SDS011;11497;52.222;21.246;2023-07-13T09:46:58;9.18;;;6.57;;
22660;SDS011;11497;52.222;21.246;2023-07-13T09:49:26;8.75;;;6.35;;
22660;SDS011;11497;52.222;21.246;2023-07-13T09:52:02;12.20;;;4.68;;
22660;SDS011;11497;52.222;21.246;2023-07-13T09:54:32;6.88;;;3.85;;
22660;SDS011;11497;52.222;21.246;2023-07-13T09:57:00;7.57;;;3.35;;
22660;SDS011;11497;52.222;21.246;2023-07-13T09:59:30;6.03;;;3.53;;
22660;SDS011;11497;52.222;21.246;2023-07-13T10:01:58;4.60;;;3.88;;
22660;SDS011;11497;52.222;21.246;2023-07-13T10:04:31;7.90;;;3.70;;
22660;SDS011;11497;52.222;21.246;2023-07-13T10:07:11;8.87;;;3.50;;
22660;SDS011;11497;52.222;21.246;2023-07-13T10:09:56;7.15;;;3.40;;
22660;SDS011;11497;52.222;21.246;2023-07-13T10:12:25;6.72;;;3.45;;
22660;SDS011;11497;52.222;21.246;2023-07-13T10:14:56;11.75;;;3.58;;
22660;SDS011;11497;52.222;21.246;2023-07-13T10:17:45;4.10;;;3.08;;
22660;SDS011;11497;52.222;21.246;2023-07-13T10:20:13;5.70;;;2.67;;
22660;SDS011;11497;52.222;21.246;2023-07-13T10:25:13;6.80;;;3.42;;
22660;SDS011;11497;52.222;21.246;2023-07-13T10:27:43;6.10;;;3.03;;
22660;SDS011;11497;52.222;21.246;2023-07-13T10:30:19;4.32;;;3.05;;
22660;SDS011;11497;52.222;21.246;2023-07-13T10:32:48;6.70;;;3.20;;
22660;SDS011;11497;52.222;21.246;2023-07-13T10:35:17;4.18;;;2.97;;
22660;SDS011;11497;52.222;21.246;2023-07-13T10:40:14;5.32;;;3.08;;
22660;SDS011;11497;52.222;21.246;2023-07-13T10:42:45;6.32;;;3.20;;
22660;SDS011;11497;52.222;21.246;2023-07-13T10:45:14;5.05;;;2.85;;
22660;SDS011;11497;52.222;21.246;2023-07-13T10:47:43;5.60;;;3.15;;
22660;SDS011;11497;52.222;21.246;2023-07-13T10:50:19;3.30;;;2.67;;
22660;SDS011;11497;52.222;21.246;2023-07-13T10:52:48;5.70;;;2.80;;
22660;SDS011;11497;52.222;21.246;2023-07-13T10:55:33;3.85;;;3.05;;
22660;SDS011;11497;52.222;21.246;2023-07-13T10:58:14;5.82;;;3.25;;
22660;SDS011;11497;52.222;21.246;2023-07-13T11:00:49;4.15;;;3.15;;
22660;SDS011;11497;52.222;21.246;2023-07-13T11:03:18;3.72;;;2.92;;
22660;SDS011;11497;52.222;21.246;2023-07-13T11:05:48;6.57;;;2.90;;
22660;SDS011;11497;52.222;21.246;2023-07-13T11:10:55;7.30;;;3.60;;
22660;SDS011;11497;52.222;21.246;2023-07-13T11:18:51;6.88;;;3.50;;
22660;SDS011;11497;52.222;21.246;2023-07-13T11:21:23;4.68;;;3.72;;
22660;SDS011;11497;52.222;21.246;2023-07-13T11:24:02;4.70;;;3.70;;
22660;SDS011;11497;52.222;21.246;2023-07-13T11:26:43;5.78;;;3.65;;
22660;SDS011;11497;52.222;21.246;2023-07-13T11:31:55;5.93;;;3.42;;
22660;SDS011;11497;52.222;21.246;2023-07-13T11:34:27;9.90;;;4.22;;
22660;SDS011;11497;52.222;21.246;2023-07-13T11:36:56;7.65;;;4.30;;
22660;SDS011;11497;52.222;21.246;2023-07-13T11:39:31;9.15;;;4.50;;
22660;SDS011;11497;52.222;21.246;2023-07-13T11:42:00;5.05;;;4.20;;
22660;SDS011;11497;52.222;21.246;2023-07-13T11:44:29;8.07;;;4.85;;
22660;SDS011;11497;52.222;21.246;2023-07-13T11:46:58;8.05;;;4.65;;
22660;SDS011;11497;52.222;21.246;2023-07-13T11:49:31;10.52;;;5.55;;
22660;SDS011;11497;52.222;21.246;2023-07-13T11:51:59;8.55;;;5.65;;
22660;SDS011;11497;52.222;21.246;2023-07-13T11:54:31;7.72;;;5.40;;
22660;SDS011;11497;52.222;21.246;2023-07-13T11:57:01;8.30;;;5.82;;
22660;SDS011;11497;52.222;21.246;2023-07-13T11:59:30;10.68;;;6.15;;
22660;SDS011;11497;52.222;21.246;2023-07-13T12:01:59;11.77;;;6.35;;
22660;SDS011;11497;52.222;21.246;2023-07-13T12:04:28;10.20;;;6.30;;
22660;SDS011;11497;52.222;21.246;2023-07-13T12:06:58;8.98;;;6.10;;
22660;SDS011;11497;52.222;21.246;2023-07-13T12:09:32;10.93;;;6.20;;
22660;SDS011;11497;52.222;21.246;2023-07-13T12:12:00;13.25;;;5.95;;
22660;SDS011;11497;52.222;21.246;2023-07-13T12:14:28;9.85;;;5.97;;
22660;SDS011;11497;52.222;21.246;2023-07-13T12:16:56;10.85;;;6.38;;
22660;SDS011;11497;52.222;21.246;2023-07-13T12:19:25;11.98;;;5.75;;
22660;SDS011;11497;52.222;21.246;2023-07-13T12:21:56;6.80;;;5.53;;
22660;SDS011;11497;52.222;21.246;2023-07-13T12:24:25;8.52;;;5.90;;
22660;SDS011;11497;52.222;21.246;2023-07-13T12:27:03;8.40;;;5.60;;
22660;SDS011;11497;52.222;21.246;2023-07-13T12:29:32;7.60;;;5.38;;
22660;SDS011;11497;52.222;21.246;2023-07-13T12:32:00;9.68;;;6.30;;
22660;SDS011;11497;52.222;21.246;2023-07-13T12:34:28;8.00;;;5.80;;
22660;SDS011;11497;52.222;21.246;2023-07-13T12:36:58;9.07;;;6.10;;
22660;SDS011;11497;52.222;21.246;2023-07-13T12:39:48;8.32;;;6.25;;
22660;SDS011;11497;52.222;21.246;2023-07-13T12:42:34;9.18;;;6.18;;
22660;SDS011;11497;52.222;21.246;2023-07-13T12:45:16;9.20;;;6.10;;
22660;SDS011;11497;52.222;21.246;2023-07-13T12:47:47;10.65;;;6.95;;
22660;SDS011;11497;52.222;21.246;2023-07-13T12:50:18;10.57;;;7.55;;
22660;SDS011;11497;52.222;21.246;2023-07-13T12:52:50;11.00;;;6.93;;
22660;SDS011;11497;52.222;21.246;2023-07-13T12:55:19;12.63;;;7.95;;
22660;SDS011;11497;52.222;21.246;2023-07-13T12:57:51;11.30;;;7.13;;
22660;SDS011;11497;52.222;21.246;2023-07-13T13:00:33;10.93;;;6.55;;
22660;SDS011;11497;52.222;21.246;2023-07-13T13:05:41;16.40;;;7.30;;
22660;SDS011;11497;52.222;21.246;2023-07-13T13:08:10;13.20;;;6.88;;
22660;SDS011;11497;52.222;21.246;2023-07-13T13:10:38;12.40;;;8.63;;
22660;SDS011;11497;52.222;21.246;2023-07-13T13:13:06;11.20;;;7.53;;
22660;SDS011;11497;52.222;21.246;2023-07-13T13:15:35;12.20;;;8.55;;
22660;SDS011;11497;52.222;21.246;2023-07-13T13:18:08;10.27;;;7.93;;
22660;SDS011;11497;52.222;21.246;2023-07-13T13:20:39;11.70;;;8.15;;
22660;SDS011;11497;52.222;21.246;2023-07-13T13:23:14;11.25;;;7.93;;
22660;SDS011;11497;52.222;21.246;2023-07-13T13:25:45;11.18;;;7.85;;
22660;SDS011;11497;52.222;21.246;2023-07-13T13:28:16;11.73;;;8.05;;
22660;SDS011;11497;52.222;21.246;2023-07-13T13:30:45;13.13;;;8.20;;
22660;SDS011;11497;52.222;21.246;2023-07-13T13:33:14;10.57;;;8.30;;
22660;SDS011;11497;52.222;21.246;2023-07-13T13:35:42;11.85;;;8.02;;
22660;SDS011;11497;52.222;21.246;2023-07-13T13:38:11;11.15;;;8.02;;
22660;SDS011;11497;52.222;21.246;2023-07-13T13:40:41;12.18;;;8.13;;
22660;SDS011;11497;52.222;21.246;2023-07-13T13:43:20;12.80;;;8.98;;
22660;SDS011;11497;52.222;21.246;2023-07-13T13:45:48;12.60;;;9.30;;
22660;SDS011;11497;52.222;21.246;2023-07-13T13:48:16;13.50;;;9.80;;
22660;SDS011;11497;52.222;21.246;2023-07-13T13:50:45;14.05;;;10.13;;
22660;SDS011;11497;52.222;21.246;2023-07-13T13:53:13;14.18;;;9.13;;
22660;SDS011;11497;52.222;21.246;2023-07-13T13:55:41;11.88;;;9.55;;
22660;SDS011;11497;52.222;21.246;2023-07-13T13:58:09;12.20;;;9.90;;
22660;SDS011;11497;52.222;21.246;2023-07-13T14:00:37;12.70;;;9.10;;
22660;SDS011;11497;52.222;21.246;2023-07-13T14:03:13;11.30;;;9.35;;
22660;SDS011;11497;52.222;21.246;2023-07-13T14:05:41;13.80;;;10.25;;
22660;SDS011;11497;52.222;21.246;2023-07-13T14:08:17;18.10;;;11.77;;
22660;SDS011;11497;52.222;21.246;2023-07-13T14:10:46;17.40;;;12.30;;
22660;SDS011;11497;52.222;21.246;2023-07-13T14:13:21;21.02;;;12.85;;
22660;SDS011;11497;52.222;21.246;2023-07-13T14:15:50;23.73;;;13.82;;
22660;SDS011;11497;52.222;21.246;2023-07-13T14:18:19;19.05;;;13.95;;
22660;SDS011;11497;52.222;21.246;2023-07-13T14:20:48;22.55;;;13.10;;
22660;SDS011;11497;52.222;21.246;2023-07-13T14:23:16;21.08;;;12.63;;
22660;SDS011;11497;52.222;21.246;2023-07-13T14:25:46;18.25;;;11.38;;
22660;SDS011;11497;52.222;21.246;2023-07-13T14:28:23;19.95;;;11.57;;
22660;SDS011;11497;52.222;21.246;2023-07-13T14:30:52;17.95;;;11.57;;
22660;SDS011;11497;52.222;21.246;2023-07-13T14:33:21;17.65;;;11.57;;
22660;SDS011;11497;52.222;21.246;2023-07-13T14:35:49;14.80;;;10.35;;
22660;SDS011;11497;52.222;21.246;2023-07-13T14:38:18;15.85;;;10.90;;
22660;SDS011;11497;52.222;21.246;2023-07-13T14:40:47;14.55;;;10.57;;
22660;SDS011;11497;52.222;21.246;2023-07-13T14:43:15;13.68;;;10.45;;
22660;SDS011;11497;52.222;21.246;2023-07-13T14:45:44;16.75;;;11.23;;
22660;SDS011;11497;52.222;21.246;2023-07-13T14:48:14;16.25;;;9.98;;
22660;SDS011;11497;52.222;21.246;2023-07-13T14:50:42;13.15;;;9.95;;
22660;SDS011;11497;52.222;21.246;2023-07-13T14:53:10;14.60;;;10.75;;
22660;SDS011;11497;52.222;21.246;2023-07-13T14:55:39;14.30;;;10.40;;
22660;SDS011;11497;52.222;21.246;2023-07-13T14:58:06;13.73;;;10.70;;
22660;SDS011;11497;52.222;21.246;2023-07-13T15:00:34;14.00;;;9.93;;
22660;SDS011;11497;52.222;21.246;2023-07-13T15:03:02;14.13;;;10.30;;